createdAt,value
2024-02-17T00:02:39.872Z,1.13
2024-02-17T00:05:45.146Z,0.43
2024-02-17T00:08:50.322Z,0.65
2024-02-17T00:11:55.368Z,1.33
2024-02-17T00:15:00.553Z,0.60
2024-02-17T00:18:06.822Z,0.25
2024-02-17T00:21:11.829Z,0.10
2024-02-17T00:24:16.648Z,0.13
2024-02-17T00:27:21.587Z,0.28
2024-02-17T00:30:26.440Z,0.70
2024-02-17T00:33:31.341Z,1.02
2024-02-17T00:36:36.181Z,0.10
2024-02-17T00:39:41.011Z,0.20
2024-02-17T00:42:45.761Z,0.30
2024-02-17T00:45:50.756Z,0.47
2024-02-17T00:52:00.965Z,0.40
2024-02-17T00:55:06.039Z,0.22
2024-02-17T00:58:10.562Z,0.30
2024-02-17T01:01:23.090Z,0.30
2024-02-17T01:04:34.833Z,0.32
2024-02-17T01:07:39.937Z,0.40
2024-02-17T01:10:44.993Z,0.30
2024-02-17T01:13:50.150Z,0.35
2024-02-17T01:16:54.734Z,0.50
2024-02-17T01:19:59.594Z,0.30
2024-02-17T01:26:09.246Z,0.22
2024-02-17T01:32:20.880Z,0.40
2024-02-17T01:35:25.838Z,0.63
2024-02-17T01:38:30.676Z,0.65
2024-02-17T01:41:35.501Z,0.22
2024-02-17T01:44:40.474Z,0.43
2024-02-17T01:47:46.050Z,0.30
2024-02-17T01:50:50.858Z,0.28
2024-02-17T01:53:55.933Z,0.47
2024-02-17T01:57:01.397Z,0.50
2024-02-17T02:00:06.811Z,0.22
2024-02-17T02:03:16.847Z,0.50
2024-02-17T02:06:25.070Z,1.17
2024-02-17T02:09:30.022Z,0.65
2024-02-17T02:12:34.990Z,0.50
2024-02-17T02:15:53.114Z,0.20
2024-02-17T02:18:59.888Z,0.80
2024-02-17T02:22:04.541Z,0.30
2024-02-17T02:25:12.278Z,0.25
2024-02-17T02:28:17.024Z,0.50
2024-02-17T02:31:21.857Z,0.35
2024-02-17T02:34:26.948Z,0.93
2024-02-17T02:37:32.001Z,0.65
2024-02-17T02:40:37.222Z,0.75
2024-02-17T02:46:46.727Z,0.15
2024-02-17T02:49:51.707Z,0.10
2024-02-17T02:52:56.782Z,0.70
2024-02-17T02:59:07.994Z,0.10
2024-02-17T03:02:12.908Z,0.17
2024-02-17T03:05:17.867Z,0.40
2024-02-17T03:08:22.716Z,0.50
2024-02-17T03:11:29.232Z,2.53
2024-02-17T03:14:35.020Z,0.40
2024-02-17T03:17:39.750Z,0.60
2024-02-17T03:20:44.739Z,1.92
2024-02-17T03:26:54.910Z,0.47
2024-02-17T03:29:59.728Z,0.95
2024-02-17T03:33:04.836Z,0.47
2024-02-17T03:36:11.607Z,0.75
2024-02-17T03:39:20.203Z,0.77
2024-02-17T03:42:25.311Z,1.00
2024-02-17T03:45:30.254Z,0.52
2024-02-17T03:48:36.719Z,1.88
2024-02-17T03:51:42.198Z,1.38
2024-02-17T03:57:51.835Z,0.93
2024-02-17T04:00:56.770Z,1.00
2024-02-17T04:04:04.650Z,1.73
2024-02-17T04:07:09.416Z,1.08
2024-02-17T04:13:21.710Z,1.23
2024-02-17T04:16:26.752Z,1.48
2024-02-17T04:19:31.732Z,1.00
2024-02-17T04:22:36.329Z,2.17
2024-02-17T04:28:47.607Z,2.40
2024-02-17T04:31:52.822Z,1.88
2024-02-17T04:34:58.019Z,1.63
2024-02-17T04:38:02.840Z,2.40
2024-02-17T04:41:07.860Z,1.95
2024-02-17T04:44:12.607Z,1.70
2024-02-17T04:47:17.485Z,2.40
2024-02-17T04:50:22.454Z,1.65
2024-02-17T04:53:27.668Z,2.63
2024-02-17T04:59:37.955Z,2.13
2024-02-17T05:02:42.753Z,2.13
2024-02-17T05:05:47.774Z,1.30
2024-02-17T05:08:52.639Z,2.97
2024-02-17T05:11:57.602Z,1.88
2024-02-17T05:18:07.261Z,1.48
2024-02-17T05:21:11.994Z,1.48
2024-02-17T05:24:16.756Z,0.75
2024-02-17T05:27:21.617Z,1.63
2024-02-17T05:30:26.473Z,2.80
2024-02-17T05:33:31.654Z,1.77
2024-02-17T05:36:36.891Z,1.85
2024-02-17T05:39:42.490Z,2.42
2024-02-17T05:42:47.607Z,1.95
2024-02-17T05:45:52.628Z,2.38
2024-02-17T05:48:58.181Z,1.55
2024-02-17T05:52:03.442Z,3.92
2024-02-17T05:55:08.718Z,1.92
2024-02-17T06:01:18.247Z,2.63
2024-02-17T06:04:22.941Z,2.72
2024-02-17T06:07:28.151Z,2.35
2024-02-17T06:13:39.223Z,2.35
2024-02-17T06:16:43.972Z,2.13
2024-02-17T06:20:07.668Z,2.67
2024-02-17T06:23:12.410Z,2.13
2024-02-17T06:26:28.068Z,2.63
2024-02-17T06:29:33.234Z,1.77
2024-02-17T06:32:38.179Z,2.08
2024-02-17T06:35:43.057Z,3.35
2024-02-17T06:38:51.871Z,1.95
2024-02-17T06:41:57.086Z,2.00
2024-02-17T06:45:01.701Z,2.15
2024-02-17T06:48:06.746Z,1.35
2024-02-17T06:51:12.153Z,1.55
2024-02-17T06:54:17.040Z,1.30
2024-02-17T06:57:22.064Z,1.33
2024-02-17T07:00:27.060Z,1.75
2024-02-17T07:03:31.914Z,1.00
2024-02-17T07:06:36.767Z,1.27
2024-02-17T07:09:41.693Z,1.38
2024-02-17T07:12:46.703Z,1.70
2024-02-17T07:15:52.027Z,0.80
2024-02-17T07:19:00.391Z,0.68
2024-02-17T07:22:09.412Z,0.70
2024-02-17T07:25:14.325Z,0.57
2024-02-17T07:28:19.388Z,1.67
2024-02-17T07:31:49.185Z,0.40
2024-02-17T07:34:55.431Z,0.52
2024-02-17T07:38:00.749Z,0.60
2024-02-17T07:41:06.033Z,1.42
2024-02-17T07:44:11.199Z,0.30
2024-02-17T07:47:47.879Z,0.45
2024-02-17T07:51:18.343Z,0.45
2024-02-17T07:54:23.160Z,1.15
2024-02-17T07:57:28.949Z,1.05
2024-02-17T08:00:34.174Z,0.43
2024-02-17T08:03:48.353Z,0.40
2024-02-17T08:07:20.149Z,0.50
2024-02-17T08:10:27.073Z,1.30
2024-02-17T08:13:32.418Z,0.43
2024-02-17T08:16:37.526Z,0.20
2024-02-17T08:19:42.678Z,0.65
2024-02-17T08:22:47.514Z,0.75
2024-02-17T08:25:52.476Z,0.63
2024-02-17T08:28:57.200Z,0.85
2024-02-17T08:32:02.360Z,0.17
2024-02-17T08:35:07.151Z,0.10
2024-02-17T08:41:20.564Z,0.10
2024-02-17T08:44:25.536Z,0.20
2024-02-17T08:47:30.539Z,0.00
2024-02-17T08:51:00.350Z,0.00
2024-02-17T08:54:05.301Z,0.15
2024-02-17T08:57:10.237Z,0.10
2024-02-17T09:00:15.204Z,0.20
2024-02-17T09:06:25.384Z,0.00
2024-02-17T09:09:30.168Z,0.00
2024-02-17T09:12:35.103Z,0.10
2024-02-17T09:15:40.132Z,0.05
2024-02-17T09:18:45.137Z,1.27
2024-02-17T09:21:49.731Z,0.00
2024-02-17T09:24:54.785Z,0.00
2024-02-17T09:28:00.293Z,0.10
2024-02-17T09:31:05.175Z,0.20
2024-02-17T09:34:10.750Z,0.10
2024-02-17T09:37:15.916Z,0.10
2024-02-17T09:40:21.744Z,0.10
2024-02-17T09:43:26.606Z,0.08
2024-02-17T09:46:31.836Z,0.10
2024-02-17T09:52:42.632Z,0.00
2024-02-17T09:55:49.489Z,0.10
2024-02-17T09:58:54.781Z,0.00
2024-02-17T10:02:03.660Z,0.10
2024-02-17T10:05:08.891Z,0.00
2024-02-17T10:08:14.452Z,0.00
2024-02-17T10:11:19.360Z,0.00
2024-02-17T10:14:24.822Z,0.65
2024-02-17T10:20:34.999Z,0.08
2024-02-17T10:23:40.361Z,0.00
2024-02-17T10:26:45.311Z,0.00
2024-02-17T10:29:49.949Z,0.00
2024-02-17T10:32:54.882Z,0.00
2024-02-17T10:36:01.594Z,0.00
2024-02-17T10:39:07.968Z,0.08
2024-02-17T10:42:12.566Z,0.08
2024-02-17T10:45:17.586Z,0.10
2024-02-17T10:48:23.545Z,0.70
2024-02-17T10:51:28.964Z,0.93
2024-02-17T10:54:41.706Z,0.20
2024-02-17T10:57:56.636Z,0.20
2024-02-17T11:01:01.880Z,0.75
2024-02-17T11:04:07.279Z,0.15
2024-02-17T11:07:12.820Z,0.20
2024-02-17T11:10:17.969Z,0.77
2024-02-17T11:16:36.367Z,0.63
2024-02-17T11:19:43.922Z,0.17
2024-02-17T11:22:53.589Z,0.38
2024-02-17T11:25:58.085Z,0.50
2024-02-17T11:29:04.046Z,0.40
2024-02-17T11:32:09.297Z,0.93
2024-02-17T11:35:18.037Z,0.57
2024-02-17T11:38:27.626Z,0.50
2024-02-17T11:41:33.678Z,0.40
2024-02-17T11:44:40.517Z,0.40
2024-02-17T11:47:45.709Z,0.82
2024-02-17T11:50:50.510Z,0.38
2024-02-17T11:53:55.504Z,0.55
2024-02-17T11:57:01.840Z,0.40
2024-02-17T12:00:10.798Z,0.65
2024-02-17T12:03:16.307Z,0.65
2024-02-17T12:06:22.628Z,0.57
2024-02-17T12:09:27.336Z,0.50
2024-02-17T12:12:33.589Z,0.25
2024-02-17T12:15:38.359Z,0.40
2024-02-17T12:21:48.301Z,0.80
2024-02-17T12:24:53.579Z,0.43
2024-02-17T12:27:58.443Z,0.30
2024-02-17T12:31:04.411Z,0.10
2024-02-17T12:34:09.743Z,0.50
2024-02-17T12:37:16.935Z,1.33
2024-02-17T12:40:22.913Z,0.50
2024-02-17T12:43:37.256Z,0.68
2024-02-17T12:46:46.568Z,0.50
2024-02-17T12:49:51.578Z,1.05
2024-02-17T12:53:11.772Z,0.63
2024-02-17T12:56:17.074Z,0.50
2024-02-17T12:59:22.200Z,0.75
2024-02-17T13:02:26.689Z,0.63
2024-02-17T13:05:31.618Z,0.50
2024-02-17T13:11:43.495Z,0.60
2024-02-17T13:14:50.374Z,0.40
2024-02-17T13:17:56.810Z,0.30
2024-02-17T13:21:01.950Z,0.30
2024-02-17T13:24:07.109Z,0.20
2024-02-17T13:27:12.794Z,0.50
2024-02-17T13:30:19.870Z,0.30
2024-02-17T13:33:25.330Z,0.43
2024-02-17T13:36:30.421Z,0.47
2024-02-17T13:39:35.212Z,0.38
2024-02-17T13:42:40.926Z,0.30
2024-02-17T13:45:52.909Z,0.65
2024-02-17T13:48:58.054Z,0.40
2024-02-17T13:52:02.944Z,1.00
2024-02-17T13:55:08.063Z,0.17
2024-02-17T13:58:13.585Z,0.40
2024-02-17T14:01:18.693Z,0.40
2024-02-17T14:04:23.626Z,0.30
2024-02-17T14:07:28.889Z,0.47
2024-02-17T14:10:33.770Z,0.50
2024-02-17T14:13:40.535Z,0.43
2024-02-17T14:16:45.535Z,0.28
2024-02-17T14:19:50.805Z,0.20
2024-02-17T14:22:55.757Z,0.30
2024-02-17T14:26:00.717Z,0.20
2024-02-17T14:29:05.871Z,0.30
2024-02-17T14:32:10.313Z,0.25
2024-02-17T14:35:15.048Z,0.40
2024-02-17T14:38:20.689Z,0.30
2024-02-17T14:41:25.662Z,0.20
2024-02-17T14:44:31.814Z,0.20
2024-02-17T14:47:37.547Z,0.38
2024-02-17T14:50:42.701Z,0.30
2024-02-17T14:53:47.698Z,0.20
2024-02-17T14:56:52.562Z,0.28
2024-02-17T14:59:57.626Z,8.88
2024-02-17T15:03:02.671Z,3.40
2024-02-17T15:06:07.899Z,0.43
2024-02-17T15:09:12.512Z,0.30
2024-02-17T15:18:34.668Z,0.30
2024-02-17T15:21:39.349Z,0.28
2024-02-17T15:24:44.160Z,0.15
2024-02-17T15:27:49.097Z,0.63
2024-02-17T15:30:56.445Z,0.30
2024-02-17T15:34:13.837Z,0.03
2024-02-17T15:37:44.732Z,0.35
2024-02-17T15:40:50.229Z,0.20
2024-02-17T15:43:55.567Z,0.52
2024-02-17T15:50:05.494Z,0.40
2024-02-17T15:56:18.033Z,0.15
2024-02-17T15:59:23.419Z,0.25
2024-02-17T16:05:34.362Z,0.15
2024-02-17T16:08:41.301Z,0.20
2024-02-17T16:11:46.261Z,0.28
2024-02-17T16:14:51.265Z,0.40
2024-02-17T16:17:57.015Z,0.17
2024-02-17T16:21:04.889Z,0.20
2024-02-17T16:24:11.883Z,0.10
2024-02-17T16:27:16.917Z,0.20
2024-02-17T16:30:21.708Z,0.40
2024-02-17T16:36:31.955Z,0.45
2024-02-17T16:42:44.320Z,0.20
2024-02-17T16:45:49.495Z,0.35
2024-02-17T16:48:54.313Z,0.32
2024-02-17T16:52:02.501Z,0.13
2024-02-17T16:55:32.868Z,0.20
2024-02-17T16:58:37.841Z,0.28
2024-02-17T17:02:17.421Z,0.17
2024-02-17T17:05:47.735Z,0.22
2024-02-17T17:08:52.899Z,0.30
2024-02-17T17:11:59.040Z,0.50
2024-02-17T17:15:05.458Z,0.30
2024-02-17T17:18:10.391Z,0.20
2024-02-17T17:21:15.389Z,0.77
2024-02-17T17:24:21.393Z,0.60
2024-02-17T17:27:26.225Z,0.35
2024-02-17T17:30:31.198Z,0.60
2024-02-17T17:33:36.420Z,0.28
2024-02-17T17:36:42.383Z,0.88
2024-02-17T17:39:47.558Z,0.82
2024-02-17T17:42:56.784Z,0.50
2024-02-17T17:46:11.217Z,0.47
2024-02-17T17:49:18.268Z,0.30
2024-02-17T17:52:23.629Z,0.70
2024-02-17T17:55:28.981Z,0.20
2024-02-17T18:01:40.895Z,0.30
2024-02-17T18:04:45.885Z,0.20
2024-02-17T18:07:51.142Z,0.57
2024-02-17T18:10:55.850Z,0.45
2024-02-17T18:14:00.631Z,0.63
2024-02-17T18:17:06.715Z,0.32
2024-02-17T18:20:12.940Z,1.35
2024-02-17T18:23:22.191Z,0.68
2024-02-17T18:26:27.614Z,0.50
2024-02-17T18:29:32.662Z,0.98
2024-02-17T18:32:37.933Z,0.50
2024-02-17T18:35:42.698Z,0.50
2024-02-17T18:38:48.451Z,0.20
2024-02-17T18:41:53.217Z,0.30
2024-02-17T18:44:57.613Z,0.47
2024-02-17T18:48:02.688Z,0.10
2024-02-17T18:54:13.641Z,0.70
2024-02-17T18:57:18.518Z,0.20
2024-02-17T19:00:24.363Z,0.45
2024-02-17T19:03:29.470Z,0.47
2024-02-17T19:06:34.317Z,0.30
2024-02-17T19:09:41.066Z,0.38
2024-02-17T19:12:47.538Z,0.40
2024-02-17T19:15:53.087Z,0.50
2024-02-17T19:18:58.562Z,0.65
2024-02-17T19:22:09.394Z,1.30
2024-02-17T19:25:18.378Z,1.80
2024-02-17T19:28:23.492Z,1.33
2024-02-17T19:31:29.509Z,1.05
2024-02-17T19:34:34.706Z,1.73
2024-02-17T19:38:17.042Z,0.95
2024-02-17T19:41:37.409Z,1.35
2024-02-17T19:44:42.708Z,1.05
2024-02-17T19:47:47.582Z,0.82
2024-02-17T19:50:52.246Z,1.52
2024-02-17T19:53:56.935Z,1.30
2024-02-17T19:57:01.804Z,12.20
2024-02-17T20:00:07.116Z,7.75
2024-02-17T20:03:11.772Z,5.63
2024-02-17T20:06:17.464Z,7.05
2024-02-17T20:09:23.522Z,4.05
2024-02-17T20:12:30.676Z,4.20
2024-02-17T20:15:35.514Z,4.35
2024-02-17T20:18:40.550Z,2.70
2024-02-17T20:21:45.525Z,3.08
2024-02-17T20:24:50.310Z,3.97
2024-02-17T20:27:55.092Z,3.08
2024-02-17T20:31:00.094Z,2.65
2024-02-17T20:34:06.683Z,3.03
2024-02-17T20:37:11.411Z,2.45
2024-02-17T20:40:16.575Z,4.88
2024-02-17T20:43:21.643Z,5.18
2024-02-17T20:49:31.403Z,5.95
2024-02-17T20:52:36.091Z,6.68
2024-02-17T20:55:40.907Z,7.93
2024-02-17T20:58:45.984Z,12.30
2024-02-17T21:01:51.263Z,10.65
2024-02-17T21:04:56.856Z,7.13
2024-02-17T21:11:09.078Z,4.47
2024-02-17T21:14:14.457Z,4.85
2024-02-17T21:17:19.184Z,4.35
2024-02-17T21:20:24.202Z,4.55
2024-02-17T21:23:29.114Z,3.92
2024-02-17T21:26:35.504Z,3.92
2024-02-17T21:29:40.355Z,6.07
2024-02-17T21:32:47.912Z,6.00
2024-02-17T21:35:52.636Z,4.22
2024-02-17T21:38:57.389Z,8.13
2024-02-17T21:42:03.850Z,7.15
2024-02-17T21:45:12.220Z,5.57
2024-02-17T21:48:18.589Z,6.60
2024-02-17T21:51:23.535Z,5.60
2024-02-17T21:54:28.445Z,5.88
2024-02-17T21:57:33.459Z,8.32
2024-02-17T22:00:38.492Z,4.95
2024-02-17T22:03:43.438Z,3.20
2024-02-17T22:06:48.258Z,4.22
2024-02-17T22:09:53.075Z,4.25
2024-02-17T22:16:04.112Z,3.77
2024-02-17T22:19:10.264Z,5.80
2024-02-17T22:22:15.813Z,6.20
2024-02-17T22:25:20.787Z,5.40
2024-02-17T22:28:25.536Z,5.75
2024-02-17T22:31:30.745Z,5.57
2024-02-17T22:34:35.779Z,6.20
2024-02-17T22:37:40.973Z,5.10
2024-02-17T22:40:45.875Z,5.50
2024-02-17T22:43:50.630Z,4.20
2024-02-17T22:46:55.513Z,5.63
2024-02-17T22:50:00.847Z,5.30
2024-02-17T22:53:06.672Z,5.30
2024-02-17T22:56:11.437Z,4.43
2024-02-17T22:59:16.448Z,5.78
2024-02-17T23:02:21.330Z,5.07
2024-02-17T23:05:26.315Z,5.18
2024-02-17T23:08:30.941Z,6.00
2024-02-17T23:11:37.079Z,4.95
2024-02-17T23:14:41.926Z,5.22
2024-02-17T23:17:46.866Z,4.93
2024-02-17T23:20:51.854Z,5.13
2024-02-17T23:25:06.082Z,4.20
2024-02-17T23:28:36.810Z,5.38
2024-02-17T23:31:43.328Z,3.75
2024-02-17T23:34:48.712Z,5.20
2024-02-17T23:37:54.986Z,4.32
2024-02-17T23:41:01.597Z,4.00
2024-02-17T23:44:06.874Z,4.13
2024-02-17T23:47:12.172Z,3.45
2024-02-17T23:50:17.083Z,4.10
2024-02-17T23:53:22.166Z,4.25
2024-02-17T23:56:26.797Z,3.45
2024-02-17T23:59:32.189Z,4.97
